Details From KNUW - Whidbey Island Nas
To KBFI - Boeing Field King Co Intl
Flight Number -
Tags Generated
Created
Modified
Stats Distance 51 nm / 95 km
Max Altitude 0 ft / 0 m
Waypoints 2
Social Downloads 2
Likes 0
Share VATSIM

Download

Looking for another format? Having issues loading an existing format? Contact us
Advertisement - Login to hide

Notes

Generated

Route

KNUW KBFI

ID Type Via Altitude Latitude Longitude Leg Dist Tot Dist Heading (true) Name
O KNUW APT - 0 ft / 0 m 48.36167˚ -122.66246˚ - 0 nm - -
O KBFI APT - 0 ft / 0 m 47.54054˚ -122.31136˚ 51 nm 51 nm 164° / 164° -

Altitude Profile

Advertisement - Login to hide

KNUW

Details ICAO KNUW (NUW)
Name WHIDBEY ISLAND NAS
Region United States
Timezone America/Los_Angeles (UTC-8.0)
Stats Elevation 47 ft / 14 m (AMSL)
Location 48.351803° -122.655907°
Runways 2
Magnetic Variation 15.966° E

METAR

KNUW 150056Z 15003KT 10SM SCT130 BKN210 BKN250 06/03 A3031 RMK AO2 SLP262 T00610033

Decode

TAF

Not found

Departure Runways

ID Width Length Bearing (true) Bearing (mag) Surface Threshold Offset Overrun Length
07 200 ft / 61 m 7,977 ft / 2,432 m 86.95° 70.98° Concrete 0 ft / 0 m 1,000 ft / 305 m
13 200 ft / 61 m 7,999 ft / 2,438 m 154.71° 138.74° Concrete 0 ft / 0 m 1,000 ft / 305 m
25 200 ft / 61 m 7,977 ft / 2,432 m 266.97° 251.00° Concrete 0 ft / 0 m 1,000 ft / 305 m
31 200 ft / 61 m 7,999 ft / 2,438 m 334.72° 318.75° Concrete 0 ft / 0 m 1,000 ft / 305 m

KBFI

Details ICAO KBFI (BFI)
Name Boeing Field King Co Intl
Region United States
Timezone America/Los_Angeles (UTC-8.0)
Stats Elevation 20 ft / 6 m (AMSL)
Location 47.531101° -122.302515°
Runways 2
Magnetic Variation 15.703° E

METAR

KBFI 150053Z 00000KT 10SM CLR 08/03 A3028 RMK AO2 SLP252 T00830033

Decode

TAF

TAF KBFI 142320Z 1500/1524 00000KT P6SM BKN250 FM150600 15004KT P6SM OVC120 FM151300 16005KT P6SM SCT030 OVC045 FM151600 17006KT P6SM -RA BKN025 OVC040 FM151800 18006KT P6SM -SHRA OVC020

Decode

Destination Runways

ID Width Length Bearing (true) Bearing (mag) Surface Threshold Offset Overrun Length
13L 100 ft / 30 m 3,708 ft / 1,130 m 150.28° 134.58° Asphalt 240 ft / 73 m 0 ft / 0 m
13R 200 ft / 61 m 9,997 ft / 3,047 m 150.27° 134.57° Asphalt 0 ft / 0 m 896 ft / 273 m
31L 200 ft / 61 m 9,997 ft / 3,047 m 330.29° 314.59° Asphalt 879 ft / 268 m 151 ft / 46 m
31R 100 ft / 30 m 3,708 ft / 1,130 m 330.28° 314.58° Asphalt 364 ft / 111 m 0 ft / 0 m

Approach Navaids

Runway Type Ident Frequency Range Bearing (true) Bearing (mag) Slope Elevation
13R Localiser IBFI 110.90 MHz 18 nm / 33 km 150.24° 134.54° - 21 ft / 6 m (AMSL)
13R Glidescope IBFI 110.90 MHz 10 nm / 19 km 150.28° 134.58° 3.00° 19 ft / 6 m (AMSL)
13R DME IBFI 110.90 MHz 18 nm / 33 km - - - 33 ft / 10 m (AMSL)
31L Localiser ICHJ 110.90 MHz 18 nm / 33 km 330.29° 314.59° - 16 ft / 5 m (AMSL)
31L Glidescope ICHJ 110.90 MHz 10 nm / 19 km 330.28° 314.58° 3.10° 15 ft / 5 m (AMSL)
31L DME ICHJ 110.90 MHz 18 nm / 33 km - - - 18 ft / 5 m (AMSL)

Popular Alternatives